createdAt,value
2018-11-07T00:02:00.868Z,90.75
2018-11-07T00:04:29.470Z,90.79
2018-11-07T00:06:58.098Z,91.08
2018-11-07T00:09:26.736Z,91.13
2018-11-07T00:11:55.333Z,91.36
2018-11-07T00:14:24.136Z,90.80
2018-11-07T00:16:53.359Z,91.31
2018-11-07T00:19:21.987Z,90.71
2018-11-07T00:21:50.623Z,90.93
2018-11-07T00:24:19.164Z,91.07
2018-11-07T00:26:47.744Z,90.56
2018-11-07T00:29:16.350Z,90.07
2018-11-07T00:31:45.034Z,89.52
2018-11-07T00:34:13.981Z,89.09
2018-11-07T00:36:42.557Z,89.13
2018-11-07T00:39:11.273Z,88.87
2018-11-07T00:41:39.878Z,88.21
2018-11-07T00:44:08.486Z,88.54
2018-11-07T00:46:37.081Z,88.23
2018-11-07T00:49:05.771Z,88.68
2018-11-07T00:51:34.393Z,88.70
2018-11-07T00:54:03.038Z,89.00
2018-11-07T00:56:31.689Z,89.53
2018-11-07T00:59:00.299Z,89.68
2018-11-07T01:01:29.029Z,89.61
2018-11-07T01:03:57.610Z,89.88
2018-11-07T01:06:26.223Z,90.48
2018-11-07T01:08:54.801Z,90.03
2018-11-07T01:11:23.387Z,89.96
2018-11-07T01:13:51.944Z,89.52
2018-11-07T01:16:20.578Z,89.80
2018-11-07T01:18:49.166Z,89.83
2018-11-07T01:21:17.743Z,89.88
2018-11-07T01:23:46.319Z,89.77
2018-11-07T01:26:14.933Z,89.89
2018-11-07T01:28:43.539Z,90.26
2018-11-07T01:31:12.572Z,90.03
2018-11-07T01:33:41.161Z,90.16
2018-11-07T01:36:09.826Z,90.10
2018-11-07T01:38:38.466Z,90.33
2018-11-07T01:41:07.070Z,90.10
2018-11-07T01:43:35.657Z,90.33
2018-11-07T01:46:04.305Z,89.76
2018-11-07T01:48:32.966Z,90.19
2018-11-07T01:51:01.604Z,89.63
2018-11-07T01:53:30.255Z,88.77
2018-11-07T01:55:58.881Z,88.83
2018-11-07T01:58:27.461Z,88.98
2018-11-07T02:00:56.110Z,88.63
2018-11-07T02:03:24.904Z,88.37
2018-11-07T02:05:53.487Z,88.76
2018-11-07T02:08:22.392Z,88.83
2018-11-07T02:10:50.975Z,88.31
2018-11-07T02:13:19.565Z,88.91
2018-11-07T02:15:48.189Z,88.52
2018-11-07T02:18:16.786Z,89.15
2018-11-07T02:20:45.361Z,89.11
2018-11-07T02:23:13.914Z,89.51
2018-11-07T02:25:42.447Z,89.92
2018-11-07T02:28:10.998Z,90.27
2018-11-07T02:30:39.752Z,90.59
2018-11-07T02:33:08.367Z,91.21
2018-11-07T02:35:36.967Z,91.85
2018-11-07T02:38:05.577Z,91.86
2018-11-07T02:40:34.247Z,91.20
2018-11-07T02:43:03.162Z,91.55
2018-11-07T02:45:31.743Z,91.90
2018-11-07T02:48:00.366Z,91.41
2018-11-07T02:50:28.941Z,90.63
2018-11-07T02:52:57.524Z,90.46
2018-11-07T02:55:26.091Z,91.22
2018-11-07T02:57:54.711Z,91.14
2018-11-07T03:00:23.323Z,91.35
2018-11-07T03:02:51.883Z,90.89
2018-11-07T03:05:20.538Z,91.19
2018-11-07T03:07:49.144Z,90.80
2018-11-07T03:10:17.831Z,90.94
2018-11-07T03:12:46.435Z,91.65
2018-11-07T03:15:15.062Z,91.43
2018-11-07T03:17:43.798Z,91.09
2018-11-07T03:20:13.343Z,90.15
2018-11-07T03:22:42.360Z,89.66
2018-11-07T03:25:10.925Z,89.91
2018-11-07T03:27:39.584Z,90.90
2018-11-07T03:30:09.112Z,90.94
2018-11-07T03:32:37.742Z,91.92
2018-11-07T03:35:10.798Z,91.52
2018-11-07T03:37:39.451Z,92.42
2018-11-07T03:40:08.081Z,92.87
2018-11-07T03:42:36.682Z,93.33
2018-11-07T03:45:05.643Z,93.23
2018-11-07T03:47:34.256Z,93.79
2018-11-07T03:50:02.829Z,94.18
2018-11-07T03:52:31.395Z,94.66
2018-11-07T03:55:00.118Z,93.52
2018-11-07T03:57:28.724Z,93.57
2018-11-07T03:59:57.302Z,93.03
2018-11-07T04:02:25.876Z,92.54
2018-11-07T04:04:54.571Z,92.02
2018-11-07T04:07:23.160Z,92.15
2018-11-07T04:09:51.701Z,92.29
2018-11-07T04:12:20.291Z,90.92
2018-11-07T04:14:48.894Z,89.50
2018-11-07T04:17:17.469Z,90.15
2018-11-07T04:19:46.137Z,90.77
2018-11-07T04:22:14.746Z,90.38
2018-11-07T04:24:43.489Z,91.06
2018-11-07T04:27:17.566Z,91.28
2018-11-07T04:29:46.853Z,91.61
2018-11-07T04:32:15.461Z,92.38
2018-11-07T04:34:44.223Z,92.27
2018-11-07T04:37:12.949Z,92.75
2018-11-07T04:39:41.589Z,93.09
2018-11-07T04:42:10.289Z,93.56
2018-11-07T04:47:12.778Z,94.37
2018-11-07T04:49:41.370Z,94.82
2018-11-07T04:52:10.081Z,95.00
2018-11-07T04:54:38.690Z,94.62
2018-11-07T04:57:07.345Z,94.61
2018-11-07T04:59:36.096Z,95.32
2018-11-07T05:02:04.750Z,95.17
2018-11-07T05:04:33.334Z,95.52
2018-11-07T05:07:01.909Z,95.21
2018-11-07T05:09:30.586Z,95.42
2018-11-07T05:11:59.232Z,95.36
2018-11-07T05:14:27.897Z,95.49
2018-11-07T05:16:56.568Z,95.29
2018-11-07T05:19:25.265Z,95.16
2018-11-07T05:21:54.954Z,95.55
2018-11-07T05:24:23.606Z,96.08
2018-11-07T05:26:52.241Z,96.25
2018-11-07T05:29:20.957Z,96.20
2018-11-07T05:31:49.704Z,96.25
2018-11-07T05:34:18.332Z,96.18
2018-11-07T05:36:47.043Z,96.42
2018-11-07T05:39:15.738Z,96.40
2018-11-07T05:41:44.397Z,96.62
2018-11-07T05:44:13.109Z,95.38
2018-11-07T05:46:41.770Z,95.34
2018-11-07T05:49:10.415Z,95.41
2018-11-07T05:51:39.204Z,95.19
2018-11-07T05:54:08.050Z,95.43
2018-11-07T05:56:36.773Z,96.00
2018-11-07T05:59:05.614Z,96.10
2018-11-07T06:01:34.258Z,96.37
2018-11-07T06:04:03.323Z,96.60
2018-11-07T06:06:31.919Z,96.37
2018-11-07T06:09:00.558Z,96.98
2018-11-07T06:11:29.546Z,96.79
2018-11-07T06:13:58.238Z,96.51
2018-11-07T06:16:26.914Z,96.75
2018-11-07T06:18:55.604Z,97.08
2018-11-07T06:21:24.265Z,96.94
2018-11-07T06:23:52.939Z,96.10
2018-11-07T06:26:21.568Z,96.37
2018-11-07T06:28:50.491Z,95.88
2018-11-07T06:31:19.240Z,95.69
2018-11-07T06:33:47.942Z,95.68
2018-11-07T06:36:16.568Z,95.01
2018-11-07T06:38:45.721Z,95.00
2018-11-07T06:41:14.306Z,94.05
2018-11-07T06:43:42.945Z,93.39
2018-11-07T06:46:12.018Z,92.15
2018-11-07T06:48:40.735Z,92.40
2018-11-07T06:51:09.374Z,91.49
2018-11-07T06:53:38.000Z,91.74
2018-11-07T06:56:06.666Z,91.28
2018-11-07T06:58:35.296Z,90.74
2018-11-07T07:01:04.002Z,90.22
2018-11-07T07:03:32.625Z,89.54
2018-11-07T07:06:01.292Z,89.85
2018-11-07T07:08:29.960Z,89.01
2018-11-07T07:10:58.686Z,88.63
2018-11-07T07:13:27.391Z,88.54
2018-11-07T07:15:56.162Z,88.30
2018-11-07T07:18:24.833Z,88.16
2018-11-07T07:20:53.522Z,88.31
2018-11-07T07:23:22.172Z,87.86
2018-11-07T07:25:50.822Z,88.27
2018-11-07T07:28:19.463Z,88.52
2018-11-07T07:30:48.090Z,88.17
2018-11-07T07:33:16.821Z,87.67
2018-11-07T07:35:45.377Z,87.02
2018-11-07T07:38:14.050Z,86.76
2018-11-07T07:40:42.813Z,86.57
2018-11-07T07:43:11.493Z,85.71
2018-11-07T07:45:40.211Z,85.05
2018-11-07T07:48:09.054Z,85.18
2018-11-07T07:50:37.832Z,84.80
2018-11-07T07:53:06.545Z,85.00
2018-11-07T07:55:35.200Z,84.31
2018-11-07T07:58:03.947Z,84.09
2018-11-07T08:00:32.674Z,83.39
2018-11-07T08:03:01.938Z,83.43
2018-11-07T08:05:30.865Z,83.04
2018-11-07T08:08:00.969Z,82.54
2018-11-07T08:10:30.256Z,82.26
2018-11-07T08:12:59.755Z,82.31
2018-11-07T08:15:31.357Z,81.75
2018-11-07T08:18:00.004Z,80.59
2018-11-07T08:20:28.752Z,79.95
2018-11-07T08:23:00.172Z,79.66
2018-11-07T08:25:28.861Z,79.55
2018-11-07T08:30:35.400Z,78.76
2018-11-07T08:33:04.239Z,78.08
2018-11-07T08:35:33.136Z,78.02
2018-11-07T08:38:02.136Z,77.64
2018-11-07T08:40:32.001Z,77.91
2018-11-07T08:43:00.876Z,76.89
2018-11-07T08:45:31.161Z,76.66
2018-11-07T08:48:01.920Z,76.36
2018-11-07T08:50:30.536Z,75.96
2018-11-07T08:53:00.118Z,75.48
2018-11-07T08:55:29.328Z,75.31
2018-11-07T08:57:58.453Z,75.24
2018-11-07T09:00:27.367Z,75.31
2018-11-07T09:02:56.062Z,74.56
2018-11-07T09:05:27.051Z,73.98
2018-11-07T09:07:56.066Z,73.91
2018-11-07T09:10:25.411Z,74.21
2018-11-07T09:12:54.083Z,74.00
2018-11-07T09:15:23.612Z,74.30
2018-11-07T09:17:52.251Z,73.53
2018-11-07T09:20:25.043Z,73.57
2018-11-07T09:22:53.667Z,73.51
2018-11-07T09:25:22.325Z,73.56
2018-11-07T09:27:51.019Z,73.62
2018-11-07T09:30:20.970Z,73.02
2018-11-07T09:32:49.766Z,71.59
2018-11-07T09:35:18.853Z,71.76
2018-11-07T09:37:47.701Z,71.48
2018-11-07T09:40:17.687Z,71.02
2018-11-07T09:42:47.007Z,70.36
2018-11-07T09:45:16.952Z,70.27
2018-11-07T09:47:46.037Z,69.36
2018-11-07T09:50:15.525Z,68.92
2018-11-07T09:52:44.727Z,68.23
2018-11-07T09:55:14.626Z,68.79
2018-11-07T09:57:43.387Z,68.71
2018-11-07T10:00:14.624Z,68.67
2018-11-07T10:02:43.706Z,68.00
2018-11-07T10:05:13.107Z,68.19
2018-11-07T10:07:42.179Z,67.92
2018-11-07T10:10:12.913Z,67.75
2018-11-07T10:12:41.885Z,66.80
2018-11-07T10:15:11.072Z,66.58
2018-11-07T10:17:39.744Z,65.85
2018-11-07T10:20:10.994Z,65.91
2018-11-07T10:22:39.649Z,64.56
2018-11-07T10:25:08.762Z,64.48
2018-11-07T10:27:37.830Z,63.83
2018-11-07T10:30:07.843Z,63.36
2018-11-07T10:32:36.123Z,62.89
2018-11-07T10:35:05.831Z,63.05
2018-11-07T10:37:34.526Z,62.19
2018-11-07T10:40:03.231Z,62.58
2018-11-07T10:42:31.879Z,62.90
2018-11-07T10:45:00.696Z,62.76
2018-11-07T10:47:29.343Z,62.66
2018-11-07T10:49:58.309Z,62.79
2018-11-07T10:52:26.997Z,63.44
2018-11-07T10:54:55.706Z,63.97
2018-11-07T10:57:25.098Z,63.20
2018-11-07T10:59:54.844Z,64.03
2018-11-07T11:02:28.752Z,63.23
2018-11-07T11:04:57.439Z,63.73
2018-11-07T11:07:26.231Z,63.21
2018-11-07T11:09:54.969Z,62.24
2018-11-07T11:12:24.232Z,62.44
2018-11-07T11:14:53.154Z,62.39
2018-11-07T11:17:21.839Z,62.39
2018-11-07T11:19:50.678Z,62.71
2018-11-07T11:22:19.357Z,62.62
2018-11-07T11:24:47.997Z,62.35
2018-11-07T11:27:16.650Z,62.28
2018-11-07T11:29:45.266Z,62.34
2018-11-07T11:32:13.917Z,61.83
2018-11-07T11:34:42.864Z,62.29
2018-11-07T11:37:11.470Z,62.94
2018-11-07T11:39:40.115Z,63.06
2018-11-07T11:42:09.194Z,62.49
2018-11-07T11:44:37.882Z,63.38
2018-11-07T11:47:06.523Z,62.94
2018-11-07T11:49:35.528Z,62.82
2018-11-07T11:52:04.182Z,62.79
2018-11-07T11:54:33.826Z,62.61
2018-11-07T11:57:02.650Z,62.47
2018-11-07T11:59:31.474Z,61.93
2018-11-07T12:02:00.097Z,61.87
2018-11-07T12:04:28.697Z,62.54
2018-11-07T12:06:57.359Z,62.55
2018-11-07T12:09:25.983Z,61.90
2018-11-07T12:11:54.661Z,61.42
2018-11-07T12:14:23.951Z,62.19
2018-11-07T12:16:52.557Z,61.54
2018-11-07T12:19:21.210Z,61.47
2018-11-07T12:21:50.287Z,61.08
2018-11-07T12:24:18.976Z,60.31
2018-11-07T12:26:47.609Z,60.30
2018-11-07T12:29:16.255Z,60.88
2018-11-07T12:31:44.963Z,61.58
2018-11-07T12:34:14.750Z,60.94
2018-11-07T12:36:43.491Z,61.09
2018-11-07T12:39:12.281Z,61.83
2018-11-07T12:41:40.986Z,61.67
2018-11-07T12:44:09.714Z,61.08
2018-11-07T12:46:38.379Z,61.36
2018-11-07T12:49:07.068Z,60.66
2018-11-07T12:51:35.662Z,60.80
2018-11-07T12:54:04.338Z,61.17
2018-11-07T12:56:32.966Z,60.44
2018-11-07T12:59:01.708Z,60.63
2018-11-07T13:01:30.292Z,61.12
2018-11-07T13:03:58.913Z,61.32
2018-11-07T13:06:27.570Z,61.92
2018-11-07T13:08:56.237Z,62.40
2018-11-07T13:11:24.936Z,61.75
2018-11-07T13:13:53.525Z,61.78
2018-11-07T13:16:22.152Z,62.13
2018-11-07T13:18:50.866Z,62.64
2018-11-07T13:21:19.642Z,62.79
2018-11-07T13:23:48.310Z,61.97
2018-11-07T13:26:17.001Z,61.93
2018-11-07T13:28:45.633Z,62.17
2018-11-07T13:31:20.600Z,62.64
2018-11-07T13:33:49.509Z,62.81
2018-11-07T13:36:18.185Z,62.42
2018-11-07T13:38:47.216Z,63.05
2018-11-07T13:41:15.711Z,63.07
2018-11-07T13:43:44.374Z,63.09
2018-11-07T13:46:13.081Z,63.44
2018-11-07T13:48:41.716Z,63.06
2018-11-07T13:51:10.389Z,62.30
2018-11-07T13:53:39.022Z,62.22
2018-11-07T13:56:07.641Z,60.86
2018-11-07T13:58:36.266Z,61.18
2018-11-07T14:01:04.956Z,60.91
2018-11-07T14:03:33.705Z,61.32
2018-11-07T14:06:02.378Z,62.47
2018-11-07T14:08:30.989Z,62.79
2018-11-07T14:10:59.610Z,64.02
2018-11-07T14:13:28.266Z,64.47
2018-11-07T14:15:56.945Z,65.87
2018-11-07T14:18:25.573Z,66.21
2018-11-07T14:20:55.140Z,66.14
2018-11-07T14:23:23.870Z,66.79
2018-11-07T14:25:52.810Z,66.62
2018-11-07T14:28:21.935Z,66.82
2018-11-07T14:30:50.310Z,67.55
2018-11-07T14:33:19.788Z,68.02
2018-11-07T14:35:48.430Z,69.10
2018-11-07T14:38:17.030Z,69.42
2018-11-07T14:40:45.674Z,69.65
2018-11-07T14:43:14.301Z,70.32
2018-11-07T14:45:42.902Z,71.46
2018-11-07T14:48:11.659Z,71.40
2018-11-07T14:50:40.276Z,72.21
2018-11-07T14:53:08.908Z,72.47
2018-11-07T14:55:37.566Z,73.24
2018-11-07T14:58:06.189Z,73.14
2018-11-07T15:00:34.866Z,74.10
2018-11-07T15:03:03.498Z,74.50
2018-11-07T15:05:32.156Z,75.25
2018-11-07T15:08:01.720Z,76.17
2018-11-07T15:10:30.299Z,76.23
2018-11-07T15:12:58.959Z,76.67
2018-11-07T15:15:27.681Z,77.22
2018-11-07T15:17:56.298Z,78.02
2018-11-07T15:20:26.173Z,77.97
2018-11-07T15:22:54.846Z,78.15
2018-11-07T15:25:23.481Z,79.06
2018-11-07T15:27:52.131Z,78.94
2018-11-07T15:30:20.810Z,80.08
2018-11-07T15:32:49.410Z,80.19
2018-11-07T15:35:18.030Z,80.28
2018-11-07T15:37:46.771Z,80.42
2018-11-07T15:40:17.026Z,80.93
2018-11-07T15:42:46.249Z,80.70
2018-11-07T15:45:19.282Z,81.69
2018-11-07T15:47:47.908Z,83.04
2018-11-07T15:50:21.862Z,82.98
2018-11-07T15:52:50.878Z,83.18
2018-11-07T15:55:19.619Z,84.00
2018-11-07T15:57:48.291Z,83.23
2018-11-07T16:00:17.946Z,83.63
2018-11-07T16:02:46.601Z,84.25
2018-11-07T16:05:16.277Z,84.27
2018-11-07T16:07:44.983Z,84.72
2018-11-07T16:10:14.683Z,84.68
2018-11-07T16:12:43.564Z,84.78
2018-11-07T16:15:14.892Z,85.33
2018-11-07T16:17:43.786Z,85.53
2018-11-07T16:20:14.847Z,85.89
2018-11-07T16:22:44.530Z,86.03
2018-11-07T16:25:13.254Z,85.58
2018-11-07T16:27:42.783Z,85.76
2018-11-07T16:30:13.861Z,85.75
2018-11-07T16:32:42.645Z,85.53
2018-11-07T16:35:12.526Z,84.93
2018-11-07T16:37:41.634Z,84.96
2018-11-07T16:40:12.093Z,84.87
2018-11-07T16:42:41.341Z,85.30
2018-11-07T16:45:11.143Z,85.42
2018-11-07T16:47:39.908Z,84.88
2018-11-07T16:50:09.851Z,84.56
2018-11-07T16:52:38.922Z,84.89
2018-11-07T16:55:07.746Z,85.16
2018-11-07T16:57:37.086Z,84.97
2018-11-07T17:00:07.776Z,84.74
2018-11-07T17:02:36.971Z,85.68
2018-11-07T17:05:05.873Z,86.14
2018-11-07T17:07:34.511Z,87.23
2018-11-07T17:10:03.209Z,87.29
2018-11-07T17:12:31.843Z,87.88
2018-11-07T17:15:00.514Z,87.53
2018-11-07T17:17:29.238Z,87.88
2018-11-07T17:19:57.921Z,88.09
2018-11-07T17:22:26.851Z,88.66
2018-11-07T17:24:55.525Z,88.64
2018-11-07T17:27:24.331Z,88.49
2018-11-07T17:29:53.518Z,88.71
2018-11-07T17:32:22.218Z,88.42
2018-11-07T17:34:50.856Z,89.11
2018-11-07T17:37:19.480Z,89.84
2018-11-07T17:39:48.154Z,89.92
2018-11-07T17:42:16.907Z,89.88
2018-11-07T17:44:45.608Z,89.88
2018-11-07T17:47:14.302Z,89.74
2018-11-07T17:49:43.025Z,90.40
2018-11-07T17:52:11.764Z,90.24
2018-11-07T17:54:40.521Z,89.69
2018-11-07T17:57:09.231Z,89.80
2018-11-07T17:59:38.234Z,90.24
2018-11-07T18:02:06.973Z,90.45
2018-11-07T18:04:35.767Z,90.34
2018-11-07T18:07:04.527Z,90.64
2018-11-07T18:09:33.407Z,90.03
2018-11-07T18:12:02.113Z,90.31
2018-11-07T18:14:30.789Z,90.69
2018-11-07T18:16:59.627Z,90.70
2018-11-07T18:19:28.362Z,91.40
2018-11-07T18:21:57.033Z,91.45
2018-11-07T18:24:25.668Z,92.19
2018-11-07T18:26:54.390Z,92.02
2018-11-07T18:29:23.106Z,91.88
2018-11-07T18:31:51.808Z,92.11
2018-11-07T18:34:20.500Z,92.27
2018-11-07T18:36:49.183Z,93.01
2018-11-07T18:39:17.867Z,93.20
2018-11-07T18:41:46.568Z,93.14
2018-11-07T18:44:15.376Z,93.87
2018-11-07T18:46:44.726Z,94.06
2018-11-07T18:49:13.673Z,94.01
2018-11-07T18:51:42.543Z,93.84
2018-11-07T18:54:11.247Z,94.10
2018-11-07T18:56:39.877Z,94.30
2018-11-07T18:59:08.664Z,94.51
2018-11-07T19:01:37.816Z,94.47
2018-11-07T19:04:06.450Z,94.88
2018-11-07T19:06:35.205Z,94.78
2018-11-07T19:09:06.930Z,94.70
2018-11-07T19:11:35.683Z,95.26
2018-11-07T19:14:04.575Z,94.72
2018-11-07T19:16:33.443Z,94.93
2018-11-07T19:19:02.163Z,95.08
2018-11-07T19:21:31.309Z,94.57
2018-11-07T19:23:59.972Z,94.98
2018-11-07T19:26:29.333Z,94.25
2018-11-07T19:28:58.016Z,95.13
2018-11-07T19:31:26.707Z,95.03
2018-11-07T19:33:55.582Z,94.83
2018-11-07T19:36:24.286Z,94.96
2018-11-07T19:38:53.035Z,95.62
2018-11-07T19:41:21.967Z,95.25
2018-11-07T19:43:51.313Z,95.17
2018-11-07T19:46:20.001Z,95.92
2018-11-07T19:48:48.677Z,95.47
2018-11-07T19:51:17.355Z,95.50
2018-11-07T19:53:46.024Z,96.17
2018-11-07T19:56:14.923Z,95.66
2018-11-07T19:58:43.580Z,95.30
2018-11-07T20:01:12.217Z,95.14
2018-11-07T20:03:40.898Z,95.33
2018-11-07T20:06:09.697Z,95.12
2018-11-07T20:08:38.342Z,94.94
2018-11-07T20:11:07.089Z,94.92
2018-11-07T20:13:35.917Z,95.05
2018-11-07T20:16:04.660Z,95.56
2018-11-07T20:18:36.103Z,95.89
2018-11-07T20:21:11.245Z,95.47
2018-11-07T20:23:39.938Z,95.71
2018-11-07T20:26:08.577Z,94.87
2018-11-07T20:28:38.027Z,94.92
2018-11-07T20:31:06.771Z,94.51
2018-11-07T20:33:35.424Z,94.83
2018-11-07T20:36:04.154Z,95.30
2018-11-07T20:38:33.395Z,95.60
2018-11-07T20:41:08.895Z,96.20
2018-11-07T20:43:37.521Z,96.28
2018-11-07T20:46:06.499Z,96.66
2018-11-07T20:48:35.145Z,96.70
2018-11-07T20:51:03.930Z,96.41
2018-11-07T20:53:32.662Z,96.83
2018-11-07T20:56:01.421Z,97.63
2018-11-07T20:58:30.254Z,97.67
2018-11-07T21:00:59.123Z,98.13
2018-11-07T21:03:28.138Z,98.39
2018-11-07T21:06:00.324Z,98.42
2018-11-07T21:08:29.353Z,98.98
2018-11-07T21:10:58.104Z,98.99
2018-11-07T21:13:26.899Z,98.68
2018-11-07T21:15:55.687Z,99.01
2018-11-07T21:18:24.323Z,98.35
2018-11-07T21:20:53.087Z,98.52
2018-11-07T21:23:21.877Z,98.16
2018-11-07T21:25:50.513Z,98.52
2018-11-07T21:28:19.185Z,98.83
2018-11-07T21:30:47.847Z,98.59
2018-11-07T21:33:16.538Z,98.94
2018-11-07T21:35:45.226Z,98.42
2018-11-07T21:38:13.919Z,99.17
2018-11-07T21:40:42.746Z,99.11
2018-11-07T21:43:11.502Z,99.83
2018-11-07T21:48:14.105Z,100.00
2018-11-07T21:50:42.746Z,100.00
2018-11-07T21:53:11.599Z,100.00
2018-11-07T21:55:40.245Z,100.00
2018-11-07T21:58:08.910Z,100.00
2018-11-07T22:00:37.617Z,100.00
2018-11-07T22:03:06.341Z,100.00
2018-11-07T22:05:34.978Z,100.00
2018-11-07T22:08:03.622Z,100.00
2018-11-07T22:10:32.265Z,100.00
2018-11-07T22:13:01.005Z,100.00
2018-11-07T22:15:29.615Z,100.00
2018-11-07T22:17:58.281Z,100.00
2018-11-07T22:20:26.876Z,100.00
2018-11-07T22:22:55.508Z,100.00
2018-11-07T22:25:24.182Z,100.00
2018-11-07T22:27:52.840Z,100.00
2018-11-07T22:30:21.478Z,100.00
2018-11-07T22:32:50.092Z,100.00
2018-11-07T22:35:18.974Z,100.00
2018-11-07T22:37:47.813Z,100.00
2018-11-07T22:40:17.739Z,100.00
2018-11-07T22:42:46.393Z,100.00
2018-11-07T22:45:15.407Z,100.00
2018-11-07T22:47:44.072Z,100.00
2018-11-07T22:50:13.840Z,100.00
2018-11-07T22:52:43.687Z,100.00
2018-11-07T22:55:12.437Z,100.00
2018-11-07T22:57:41.103Z,100.00
2018-11-07T23:00:19.489Z,100.00
2018-11-07T23:02:50.751Z,100.00
2018-11-07T23:05:19.527Z,100.00
2018-11-07T23:07:48.960Z,100.00
2018-11-07T23:10:17.717Z,100.00
2018-11-07T23:12:46.902Z,100.00
2018-11-07T23:15:21.023Z,100.00
2018-11-07T23:17:50.222Z,100.00
2018-11-07T23:20:19.426Z,100.00
2018-11-07T23:22:48.247Z,100.00
2018-11-07T23:25:24.704Z,100.00
2018-11-07T23:27:53.569Z,100.00
2018-11-07T23:30:22.488Z,100.00
2018-11-07T23:32:51.873Z,100.00
2018-11-07T23:35:20.536Z,100.00
2018-11-07T23:37:49.244Z,100.00
2018-11-07T23:40:19.079Z,100.00
2018-11-07T23:42:48.000Z,100.00
2018-11-07T23:45:16.846Z,100.00
2018-11-07T23:47:45.522Z,100.00
2018-11-07T23:50:14.871Z,100.00
2018-11-07T23:52:49.164Z,100.00
2018-11-07T23:55:19.519Z,100.00
2018-11-07T23:57:49.089Z,100.00
